createdAt,value
2019-06-18T00:00:15.573Z,42.50
2019-06-18T00:01:15.558Z,43.70
2019-06-18T00:02:15.546Z,44.10
2019-06-18T00:03:15.533Z,45.30
2019-06-18T00:04:15.540Z,45.20
2019-06-18T00:05:15.513Z,45.00
2019-06-18T00:06:15.518Z,46.00
2019-06-18T00:07:15.496Z,43.50
2019-06-18T00:08:15.495Z,46.30
2019-06-18T00:09:15.469Z,44.90
2019-06-18T00:10:15.481Z,44.10
2019-06-18T00:11:15.437Z,44.10
2019-06-18T00:12:15.500Z,45.10
2019-06-18T00:13:15.446Z,45.20
2019-06-18T00:14:15.481Z,46.40
2019-06-18T00:15:15.434Z,44.70
2019-06-18T00:16:15.419Z,46.40
2019-06-18T00:17:15.393Z,46.60
2019-06-18T00:18:15.439Z,43.10
2019-06-18T00:19:15.390Z,43.10
2019-06-18T00:20:15.354Z,41.50
2019-06-18T00:21:15.357Z,42.90
2019-06-18T00:22:15.348Z,42.90
2019-06-18T00:23:15.326Z,41.50
2019-06-18T00:24:15.332Z,41.50
2019-06-18T00:25:15.306Z,40.30
2019-06-18T00:26:15.315Z,40.90
2019-06-18T00:27:15.303Z,41.00
2019-06-18T00:28:15.287Z,42.20
2019-06-18T00:29:15.282Z,43.10
2019-06-18T00:30:15.260Z,42.20
2019-06-18T00:31:15.258Z,40.30
2019-06-18T00:32:15.256Z,40.00
2019-06-18T00:33:15.223Z,41.80
2019-06-18T00:34:15.447Z,40.50
2019-06-18T00:35:15.201Z,41.30
2019-06-18T00:36:15.193Z,41.30
2019-06-18T00:37:15.205Z,41.70
2019-06-18T00:38:15.174Z,40.90
2019-06-18T00:39:15.176Z,42.00
2019-06-18T00:40:21.227Z,42.20
2019-06-18T00:41:17.207Z,41.30
2019-06-18T00:42:16.867Z,41.30
2019-06-18T00:43:15.119Z,42.50
2019-06-18T00:44:16.944Z,41.30
2019-06-18T00:45:16.784Z,40.30
2019-06-18T00:46:15.112Z,41.80
2019-06-18T00:47:16.804Z,40.60
2019-06-18T00:48:17.275Z,40.40
2019-06-18T00:49:17.310Z,41.50
2019-06-18T00:50:16.567Z,41.30
2019-06-18T00:51:16.828Z,41.00
2019-06-18T00:52:17.362Z,41.30
2019-06-18T00:53:16.887Z,41.00
2019-06-18T00:54:17.390Z,40.20
2019-06-18T00:55:17.594Z,38.70
2019-06-18T00:56:17.091Z,38.90
2019-06-18T00:57:17.581Z,38.10
2019-06-18T00:58:17.750Z,36.90
2019-06-18T00:59:16.664Z,39.10
2019-06-18T01:00:17.871Z,38.30
2019-06-18T01:01:16.869Z,38.80
2019-06-18T01:02:14.945Z,38.80
2019-06-18T01:03:17.402Z,39.70
2019-06-18T01:04:17.478Z,38.90
2019-06-18T01:05:17.876Z,38.30
2019-06-18T01:06:17.138Z,37.20
2019-06-18T01:07:17.100Z,37.80
2019-06-18T01:08:17.417Z,37.80
2019-06-18T01:09:16.664Z,37.20
2019-06-18T01:10:16.891Z,38.60
2019-06-18T01:11:16.833Z,36.10
2019-06-18T01:12:16.807Z,36.80
2019-06-18T01:13:16.653Z,37.20
2019-06-18T01:14:17.139Z,37.50
2019-06-18T01:15:17.186Z,36.30
2019-06-18T01:16:19.626Z,37.20
2019-06-18T01:17:16.731Z,37.20
2019-06-18T01:18:17.218Z,35.70
2019-06-18T01:19:16.972Z,35.80
2019-06-18T01:20:17.230Z,37.70
2019-06-18T01:21:17.266Z,36.70
2019-06-18T01:22:16.865Z,37.00
2019-06-18T01:23:14.728Z,35.40
2019-06-18T01:24:14.691Z,35.80
2019-06-18T01:25:14.696Z,35.70
2019-06-18T01:26:14.670Z,34.80
2019-06-18T01:27:14.680Z,34.30
2019-06-18T01:28:14.671Z,35.50
2019-06-18T01:29:14.624Z,36.20
2019-06-18T01:30:14.647Z,34.80
2019-06-18T01:31:14.633Z,35.20
2019-06-18T01:32:14.607Z,36.70
2019-06-18T01:33:14.718Z,35.70
2019-06-18T01:34:14.598Z,37.20
2019-06-18T01:35:14.598Z,34.80
2019-06-18T01:36:14.590Z,37.10
2019-06-18T01:37:14.571Z,36.00
2019-06-18T01:38:14.653Z,37.10
2019-06-18T01:39:14.548Z,36.80
2019-06-18T01:40:14.531Z,37.70
2019-06-18T01:41:14.526Z,36.10
2019-06-18T01:42:14.527Z,36.60
2019-06-18T01:43:14.558Z,36.50
2019-06-18T01:44:14.542Z,35.70
2019-06-18T01:45:14.518Z,35.50
2019-06-18T01:46:14.460Z,36.90
2019-06-18T01:47:14.451Z,38.00
2019-06-18T01:48:14.455Z,36.90
2019-06-18T01:49:14.440Z,37.90
2019-06-18T01:50:14.443Z,37.90
2019-06-18T01:51:14.422Z,37.20
2019-06-18T01:52:14.402Z,37.50
2019-06-18T01:53:14.412Z,38.10
2019-06-18T01:54:14.375Z,36.30
2019-06-18T01:55:14.368Z,36.30
2019-06-18T01:56:14.363Z,36.70
2019-06-18T01:57:14.778Z,37.10
2019-06-18T01:58:14.346Z,38.10
2019-06-18T01:59:14.342Z,37.40
2019-06-18T02:00:14.320Z,38.00
2019-06-18T02:01:14.315Z,37.60
2019-06-18T02:02:14.283Z,36.70
2019-06-18T02:03:14.299Z,37.30
2019-06-18T02:04:14.276Z,35.80
2019-06-18T02:05:14.263Z,37.60
2019-06-18T02:06:14.263Z,37.10
2019-06-18T02:07:14.243Z,34.20
2019-06-18T02:08:14.277Z,37.20
2019-06-18T02:09:14.231Z,35.60
2019-06-18T02:10:14.216Z,34.60
2019-06-18T02:11:14.201Z,35.30
2019-06-18T02:12:14.202Z,37.20
2019-06-18T02:13:14.194Z,35.70
2019-06-18T02:14:14.181Z,35.70
2019-06-18T02:15:14.172Z,35.10
2019-06-18T02:16:14.141Z,34.50
2019-06-18T02:17:14.165Z,35.90
2019-06-18T02:18:14.171Z,35.50
2019-06-18T02:19:14.134Z,34.40
2019-06-18T02:20:14.109Z,34.20
2019-06-18T02:21:14.086Z,33.70
2019-06-18T02:22:14.095Z,34.80
2019-06-18T02:23:14.067Z,36.90
2019-06-18T02:24:14.062Z,37.10
2019-06-18T02:25:14.049Z,39.20
2019-06-18T02:26:14.198Z,35.20
2019-06-18T02:27:14.027Z,35.40
2019-06-18T02:28:14.034Z,34.80
2019-06-18T02:29:14.001Z,35.00
2019-06-18T02:30:14.071Z,34.50
2019-06-18T02:31:14.230Z,34.30
2019-06-18T02:32:14.730Z,34.40
2019-06-18T02:33:14.751Z,33.50
2019-06-18T02:34:13.956Z,34.40
2019-06-18T02:35:13.960Z,34.40
2019-06-18T02:36:13.987Z,36.30
2019-06-18T02:37:13.933Z,39.80
2019-06-18T02:38:13.931Z,39.20
2019-06-18T02:39:13.906Z,37.60
2019-06-18T02:40:13.899Z,36.70
2019-06-18T02:41:13.886Z,36.90
2019-06-18T02:42:13.863Z,37.20
2019-06-18T02:43:13.856Z,37.10
2019-06-18T02:44:13.884Z,38.00
2019-06-18T02:45:13.826Z,38.00
2019-06-18T02:46:13.818Z,38.40
2019-06-18T02:47:16.073Z,37.60
2019-06-18T02:48:13.831Z,37.30
2019-06-18T02:49:13.838Z,37.90
2019-06-18T02:50:13.789Z,37.80
2019-06-18T02:51:13.785Z,36.40
2019-06-18T02:52:13.803Z,35.70
2019-06-18T02:53:13.762Z,34.90
2019-06-18T02:54:13.740Z,35.80
2019-06-18T02:55:13.747Z,37.00
2019-06-18T02:56:13.710Z,37.10
2019-06-18T02:57:13.703Z,36.10
2019-06-18T02:58:13.698Z,34.60
2019-06-18T02:59:13.680Z,35.90
2019-06-18T03:00:13.901Z,37.30
2019-06-18T03:01:13.677Z,37.40
2019-06-18T03:02:13.656Z,36.30
2019-06-18T03:03:13.650Z,36.90
2019-06-18T03:04:13.635Z,35.60
2019-06-18T03:05:13.601Z,37.10
2019-06-18T03:06:13.660Z,36.60
2019-06-18T03:07:13.682Z,37.80
2019-06-18T03:08:13.589Z,37.80
2019-06-18T03:09:13.574Z,36.40
2019-06-18T03:10:13.557Z,36.80
2019-06-18T03:11:13.627Z,36.40
2019-06-18T03:12:13.565Z,37.30
2019-06-18T03:13:13.610Z,36.10
2019-06-18T03:14:13.517Z,35.90
2019-06-18T03:15:13.555Z,36.50
2019-06-18T03:16:13.499Z,36.00
2019-06-18T03:17:28.636Z,35.90
2019-06-18T03:18:13.531Z,34.90
2019-06-18T03:19:13.482Z,35.20
2019-06-18T03:20:13.476Z,37.40
2019-06-18T03:21:15.961Z,36.90
2019-06-18T03:22:13.437Z,36.60
2019-06-18T03:23:13.553Z,36.30
2019-06-18T03:24:13.491Z,35.00
2019-06-18T03:25:13.631Z,34.90
2019-06-18T03:26:13.388Z,35.40
2019-06-18T03:27:13.383Z,33.60
2019-06-18T03:28:13.377Z,35.90
2019-06-18T03:29:13.370Z,35.10
2019-06-18T03:30:14.940Z,34.60
2019-06-18T03:31:15.461Z,36.40
2019-06-18T03:32:14.580Z,34.40
2019-06-18T03:33:15.286Z,34.70
2019-06-18T03:34:14.916Z,34.80
2019-06-18T03:35:13.307Z,35.20
2019-06-18T03:36:13.288Z,33.50
2019-06-18T03:37:13.319Z,33.90
2019-06-18T03:38:13.259Z,34.40
2019-06-18T03:39:13.412Z,34.20
2019-06-18T03:40:13.239Z,34.00
2019-06-18T03:41:13.323Z,35.20
2019-06-18T03:42:13.216Z,35.20
2019-06-18T03:43:13.224Z,33.90
2019-06-18T03:44:13.195Z,34.30
2019-06-18T03:45:13.311Z,34.70
2019-06-18T03:46:13.185Z,35.20
2019-06-18T03:47:13.165Z,34.40
2019-06-18T03:48:13.200Z,33.80
2019-06-18T03:49:13.170Z,33.80
2019-06-18T03:50:13.358Z,32.70
2019-06-18T03:51:13.133Z,33.20
2019-06-18T03:52:13.286Z,33.80
2019-06-18T03:53:13.528Z,33.20
2019-06-18T03:54:13.403Z,34.20
2019-06-18T03:55:13.793Z,34.40
2019-06-18T03:56:13.073Z,32.70
2019-06-18T03:57:13.589Z,34.30
2019-06-18T03:58:13.041Z,33.90
2019-06-18T03:59:13.055Z,32.90
2019-06-18T04:00:13.495Z,33.60
2019-06-18T04:01:13.002Z,32.50
2019-06-18T04:02:13.081Z,32.80
2019-06-18T04:03:12.981Z,32.80
2019-06-18T04:04:13.182Z,32.80
2019-06-18T04:05:13.685Z,31.70
2019-06-18T04:06:12.978Z,30.60
2019-06-18T04:07:13.173Z,31.80
2019-06-18T04:08:12.933Z,31.60
2019-06-18T04:09:13.256Z,31.20
2019-06-18T04:10:12.952Z,32.30
2019-06-18T04:11:13.256Z,32.50
2019-06-18T04:12:13.393Z,31.30
2019-06-18T04:13:13.176Z,31.20
2019-06-18T04:14:13.544Z,30.40
2019-06-18T04:15:12.860Z,31.50
2019-06-18T04:16:13.970Z,31.30
2019-06-18T04:17:12.950Z,31.70
2019-06-18T04:18:13.238Z,31.40
2019-06-18T04:19:12.826Z,30.90
2019-06-18T04:20:13.272Z,31.70
2019-06-18T04:21:13.154Z,32.00
2019-06-18T04:22:13.445Z,30.60
2019-06-18T04:23:13.601Z,31.50
2019-06-18T04:24:13.448Z,32.60
2019-06-18T04:25:12.734Z,30.40
2019-06-18T04:26:12.878Z,30.70
2019-06-18T04:27:12.744Z,32.00
2019-06-18T04:28:13.062Z,31.50
2019-06-18T04:29:13.230Z,31.50
2019-06-18T04:30:13.437Z,31.80
2019-06-18T04:31:13.678Z,32.00
2019-06-18T04:32:15.723Z,33.20
2019-06-18T04:33:13.399Z,31.70
2019-06-18T04:34:13.031Z,31.70
2019-06-18T04:35:12.647Z,32.50
2019-06-18T04:36:13.045Z,31.50
2019-06-18T04:37:13.838Z,32.50
2019-06-18T04:38:12.829Z,32.50
2019-06-18T04:39:12.932Z,32.60
2019-06-18T04:40:13.351Z,31.80
2019-06-18T04:41:13.401Z,31.50
2019-06-18T04:42:12.583Z,31.60
2019-06-18T04:43:12.886Z,33.40
2019-06-18T04:44:13.326Z,32.80
2019-06-18T04:45:12.987Z,32.50
2019-06-18T04:46:13.034Z,32.20
2019-06-18T04:47:15.930Z,30.90
2019-06-18T04:48:21.006Z,33.20
2019-06-18T04:49:12.631Z,33.40
2019-06-18T04:50:13.569Z,31.70
2019-06-18T04:51:13.278Z,32.10
2019-06-18T04:52:12.546Z,33.70
2019-06-18T04:53:12.931Z,32.70
2019-06-18T04:54:13.569Z,32.10
2019-06-18T04:55:13.486Z,32.60
2019-06-18T04:56:12.781Z,32.90
2019-06-18T04:57:13.008Z,32.70
2019-06-18T04:58:12.758Z,33.50
2019-06-18T04:59:13.175Z,34.30
2019-06-18T05:00:12.879Z,33.30
2019-06-18T05:01:13.418Z,34.30
2019-06-18T05:02:12.616Z,34.10
2019-06-18T05:03:13.285Z,33.60
2019-06-18T05:04:12.809Z,34.80
2019-06-18T05:05:13.115Z,34.60
2019-06-18T05:06:13.892Z,34.00
2019-06-18T05:07:13.404Z,33.40
2019-06-18T05:08:12.934Z,34.90
2019-06-18T05:09:13.732Z,33.90
2019-06-18T05:10:12.400Z,33.90
2019-06-18T05:11:12.916Z,33.50
2019-06-18T05:12:12.575Z,34.50
2019-06-18T05:13:13.799Z,34.00
2019-06-18T05:14:13.123Z,33.00
2019-06-18T05:15:13.474Z,34.50
2019-06-18T05:16:13.092Z,34.00
2019-06-18T05:17:13.574Z,32.80
2019-06-18T05:18:12.700Z,34.10
2019-06-18T05:19:12.766Z,34.20
2019-06-18T05:20:13.139Z,32.80
2019-06-18T05:21:13.293Z,32.80
2019-06-18T05:22:12.952Z,34.60
2019-06-18T05:23:13.161Z,34.80
2019-06-18T05:24:13.113Z,33.10
2019-06-18T05:25:12.432Z,34.70
2019-06-18T05:26:13.364Z,32.90
2019-06-18T05:27:13.038Z,33.70
2019-06-18T05:28:12.641Z,33.20
2019-06-18T05:29:14.255Z,34.50
2019-06-18T05:30:13.024Z,35.00
2019-06-18T05:31:13.927Z,33.90
2019-06-18T05:32:12.633Z,35.70
2019-06-18T05:33:12.921Z,36.30
2019-06-18T05:34:13.828Z,36.20
2019-06-18T05:35:12.610Z,35.70
2019-06-18T05:36:12.934Z,37.00
2019-06-18T05:37:13.575Z,37.30
2019-06-18T05:38:13.351Z,38.20
2019-06-18T05:39:13.483Z,36.80
2019-06-18T05:40:12.741Z,36.70
2019-06-18T05:41:13.687Z,35.70
2019-06-18T05:42:12.720Z,36.60
2019-06-18T05:43:13.608Z,35.50
2019-06-18T05:44:13.020Z,35.90
2019-06-18T05:45:13.145Z,35.90
2019-06-18T05:46:12.456Z,37.10
2019-06-18T05:47:13.078Z,37.30
2019-06-18T05:48:13.042Z,37.80
2019-06-18T05:49:13.255Z,37.30
2019-06-18T05:50:12.892Z,37.90
2019-06-18T05:51:12.438Z,38.60
2019-06-18T05:52:13.053Z,40.60
2019-06-18T05:53:13.196Z,39.30
2019-06-18T05:54:13.244Z,38.10
2019-06-18T05:55:12.465Z,38.40
2019-06-18T05:56:13.111Z,38.00
2019-06-18T05:57:12.556Z,38.80
2019-06-18T05:58:13.031Z,38.70
2019-06-18T05:59:13.735Z,38.80
2019-06-18T06:00:13.073Z,39.60
2019-06-18T06:01:13.141Z,37.80
2019-06-18T06:02:13.852Z,39.00
2019-06-18T06:03:13.104Z,36.90
2019-06-18T06:04:13.241Z,38.20
2019-06-18T06:05:12.246Z,37.00
2019-06-18T06:06:13.446Z,36.70
2019-06-18T06:07:15.895Z,36.80
2019-06-18T06:08:13.708Z,36.10
2019-06-18T06:09:13.359Z,37.00
2019-06-18T06:10:12.895Z,38.80
2019-06-18T06:11:12.518Z,37.60
2019-06-18T06:12:13.217Z,40.00
2019-06-18T06:13:12.857Z,38.70
2019-06-18T06:14:12.766Z,40.30
2019-06-18T06:15:13.200Z,42.40
2019-06-18T06:16:13.251Z,40.50
2019-06-18T06:17:13.569Z,41.40
2019-06-18T06:18:12.660Z,40.40
2019-06-18T06:19:17.397Z,39.20
2019-06-18T06:20:13.246Z,39.60
2019-06-18T06:21:12.935Z,40.80
2019-06-18T06:22:12.637Z,39.90
2019-06-18T06:23:12.797Z,41.30
2019-06-18T06:24:13.495Z,42.30
2019-06-18T06:25:14.078Z,40.90
2019-06-18T06:26:14.780Z,40.10
2019-06-18T06:27:12.956Z,40.30
2019-06-18T06:28:13.181Z,41.00
2019-06-18T06:29:14.487Z,40.40
2019-06-18T06:30:12.867Z,41.90
2019-06-18T06:31:13.560Z,40.40
2019-06-18T06:32:13.266Z,40.10
2019-06-18T06:33:13.035Z,40.70
2019-06-18T06:34:13.239Z,40.10
2019-06-18T06:35:13.426Z,40.50
2019-06-18T06:36:12.406Z,40.10
2019-06-18T06:37:13.238Z,40.80
2019-06-18T06:38:12.686Z,41.20
2019-06-18T06:39:13.640Z,41.60
2019-06-18T06:40:13.053Z,41.70
2019-06-18T06:41:13.372Z,41.60
2019-06-18T06:42:13.338Z,41.70
2019-06-18T06:43:13.735Z,46.90
2019-06-18T06:44:12.831Z,44.90
2019-06-18T06:45:13.346Z,44.30
2019-06-18T06:46:12.856Z,46.50
2019-06-18T06:47:14.717Z,45.40
2019-06-18T06:48:12.835Z,44.30
2019-06-18T06:49:21.295Z,45.00
2019-06-18T06:50:13.942Z,44.20
2019-06-18T06:51:13.086Z,46.30
2019-06-18T06:52:12.774Z,46.70
2019-06-18T06:53:13.258Z,44.40
2019-06-18T06:54:12.715Z,47.30
2019-06-18T06:55:12.967Z,44.70
2019-06-18T06:56:12.882Z,47.30
2019-06-18T06:57:13.448Z,46.40
2019-06-18T06:58:23.093Z,47.80
2019-06-18T06:59:13.052Z,48.20
2019-06-18T07:00:13.497Z,47.30
2019-06-18T07:01:13.424Z,47.10
2019-06-18T07:02:13.721Z,46.50
2019-06-18T07:03:13.890Z,46.80
2019-06-18T07:04:12.434Z,47.80
2019-06-18T07:05:12.702Z,47.40
2019-06-18T07:06:13.178Z,48.40
2019-06-18T07:07:13.032Z,47.90
2019-06-18T07:08:13.340Z,49.30
2019-06-18T07:09:13.041Z,50.50
2019-06-18T07:10:12.832Z,50.90
2019-06-18T07:11:12.808Z,54.10
2019-06-18T07:12:13.322Z,54.50
2019-06-18T07:13:12.944Z,55.40
2019-06-18T07:14:13.214Z,57.70
2019-06-18T07:15:13.069Z,61.70
2019-06-18T07:16:13.130Z,59.60
2019-06-18T07:17:12.612Z,57.70
2019-06-18T07:18:12.765Z,58.60
2019-06-18T07:19:12.608Z,58.60
2019-06-18T07:20:12.784Z,58.90
2019-06-18T07:21:12.787Z,60.50
2019-06-18T07:22:12.544Z,59.30
2019-06-18T07:23:13.407Z,60.00
2019-06-18T07:24:12.470Z,62.40
2019-06-18T07:25:12.341Z,60.70
2019-06-18T07:26:12.801Z,61.20
2019-06-18T07:27:13.022Z,60.30
2019-06-18T07:28:13.071Z,60.00
2019-06-18T07:29:14.084Z,59.90
2019-06-18T07:30:13.116Z,60.40
2019-06-18T07:31:12.667Z,59.00
2019-06-18T07:32:12.568Z,61.70
2019-06-18T07:33:12.630Z,61.60
2019-06-18T07:34:13.530Z,59.90
2019-06-18T07:35:12.899Z,60.70
2019-06-18T07:36:12.501Z,61.70
2019-06-18T07:37:13.125Z,62.70
2019-06-18T07:38:12.581Z,61.80
2019-06-18T07:39:13.003Z,60.60
2019-06-18T07:40:13.215Z,60.20
2019-06-18T07:41:10.548Z,58.10
2019-06-18T07:42:13.369Z,60.80
2019-06-18T07:43:12.953Z,59.20
2019-06-18T07:44:12.661Z,57.50
2019-06-18T07:45:12.594Z,59.10
2019-06-18T07:46:12.675Z,58.80
2019-06-18T07:47:12.613Z,59.70
2019-06-18T07:48:12.622Z,58.80
2019-06-18T07:49:13.198Z,59.00
2019-06-18T07:50:16.948Z,59.50
2019-06-18T07:51:13.033Z,60.60
2019-06-18T07:52:13.111Z,60.40
2019-06-18T07:53:13.098Z,59.40
2019-06-18T07:54:12.354Z,62.20
2019-06-18T07:55:10.438Z,61.60
2019-06-18T07:56:13.077Z,58.30
2019-06-18T07:57:10.346Z,58.50
2019-06-18T07:58:13.295Z,59.60
2019-06-18T07:59:12.836Z,58.80
2019-06-18T08:00:10.365Z,56.20
2019-06-18T08:01:12.465Z,56.00
2019-06-18T08:02:12.635Z,53.90
2019-06-18T08:03:13.269Z,52.80
2019-06-18T08:04:13.070Z,52.50
2019-06-18T08:05:12.400Z,52.20
2019-06-18T08:06:10.259Z,50.50
2019-06-18T08:07:10.235Z,49.50
2019-06-18T08:08:12.377Z,51.40
2019-06-18T08:09:10.223Z,50.90
2019-06-18T08:10:13.187Z,51.40
2019-06-18T08:11:12.277Z,48.80
2019-06-18T08:12:12.625Z,48.70
2019-06-18T08:13:13.256Z,51.30
2019-06-18T08:14:13.228Z,50.30
2019-06-18T08:15:12.557Z,47.70
2019-06-18T08:16:10.145Z,47.60
2019-06-18T08:17:12.327Z,48.30
2019-06-18T08:18:12.622Z,48.90
2019-06-18T08:19:10.105Z,49.10
2019-06-18T08:20:29.665Z,47.60
2019-06-18T08:21:12.687Z,48.20
2019-06-18T08:22:14.288Z,47.90
2019-06-18T08:23:10.113Z,49.40
2019-06-18T08:24:10.069Z,50.20
2019-06-18T08:25:10.051Z,49.10
2019-06-18T08:26:12.820Z,50.20
2019-06-18T08:27:12.234Z,48.40
2019-06-18T08:28:12.348Z,48.80
2019-06-18T08:29:12.612Z,46.40
2019-06-18T08:30:12.242Z,47.40
2019-06-18T08:31:09.987Z,48.70
2019-06-18T08:32:09.963Z,46.80
2019-06-18T08:33:09.957Z,46.30
2019-06-18T08:34:12.498Z,45.40
2019-06-18T08:35:10.066Z,45.80
2019-06-18T08:36:09.923Z,48.10
2019-06-18T08:37:12.547Z,47.60
2019-06-18T08:38:09.880Z,48.10
2019-06-18T08:39:09.930Z,46.20
2019-06-18T08:40:09.869Z,46.70
2019-06-18T08:41:12.354Z,47.60
2019-06-18T08:42:12.618Z,45.90
2019-06-18T08:43:09.888Z,46.10
2019-06-18T08:44:09.848Z,46.00
2019-06-18T08:45:12.534Z,46.80
2019-06-18T08:46:09.803Z,46.40
2019-06-18T08:47:09.788Z,46.40
2019-06-18T08:48:09.780Z,47.90
2019-06-18T08:49:09.808Z,48.10
2019-06-18T08:50:09.763Z,47.30
2019-06-18T08:51:09.737Z,45.40
2019-06-18T08:52:09.726Z,48.00
2019-06-18T08:53:09.718Z,47.20
2019-06-18T08:54:09.707Z,47.00
2019-06-18T08:55:09.690Z,47.40
2019-06-18T08:56:12.145Z,48.00
2019-06-18T08:57:09.717Z,46.60
2019-06-18T08:58:09.657Z,46.40
2019-06-18T08:59:09.639Z,48.00
2019-06-18T09:00:12.466Z,45.10
2019-06-18T09:01:09.635Z,46.00
2019-06-18T09:02:09.618Z,46.30
2019-06-18T09:03:23.025Z,47.50
2019-06-18T09:04:09.602Z,43.60
2019-06-18T09:05:09.579Z,44.30
2019-06-18T09:06:09.556Z,45.30
2019-06-18T09:07:09.561Z,45.00
2019-06-18T09:08:09.541Z,42.90
2019-06-18T09:09:09.536Z,44.60
2019-06-18T09:10:09.539Z,43.80
2019-06-18T09:11:09.521Z,42.90
2019-06-18T09:12:09.501Z,43.60
2019-06-18T09:13:09.490Z,43.90
2019-06-18T09:14:09.474Z,42.30
2019-06-18T09:15:09.485Z,43.20
2019-06-18T09:16:09.512Z,42.40
2019-06-18T09:17:09.447Z,42.50
2019-06-18T09:18:09.417Z,42.80
2019-06-18T09:19:09.438Z,44.40
2019-06-18T09:20:09.424Z,41.70
2019-06-18T09:21:09.390Z,43.40
2019-06-18T09:22:09.388Z,43.60
2019-06-18T09:23:09.531Z,44.30
2019-06-18T09:24:09.379Z,43.30
2019-06-18T09:25:09.350Z,44.60
2019-06-18T09:26:09.358Z,42.80
2019-06-18T09:27:09.356Z,43.50
2019-06-18T09:28:09.326Z,41.90
2019-06-18T09:29:09.323Z,43.30
2019-06-18T09:30:09.328Z,42.70
2019-06-18T09:31:09.266Z,43.80
2019-06-18T09:32:09.271Z,43.10
2019-06-18T09:33:09.270Z,43.70
2019-06-18T09:34:09.243Z,44.10
2019-06-18T09:35:09.231Z,42.60
2019-06-18T09:36:09.216Z,45.00
2019-06-18T09:37:09.204Z,43.30
2019-06-18T09:38:09.291Z,43.30
2019-06-18T09:39:09.192Z,42.90
2019-06-18T09:40:09.172Z,43.40
2019-06-18T09:41:09.170Z,43.80
2019-06-18T09:42:09.161Z,44.60
2019-06-18T09:43:09.149Z,44.60
2019-06-18T09:44:09.131Z,44.60
2019-06-18T09:45:09.124Z,45.60
2019-06-18T09:46:09.113Z,43.40
2019-06-18T09:47:09.105Z,45.40
2019-06-18T09:48:09.083Z,44.30
2019-06-18T09:49:09.088Z,45.50
2019-06-18T09:50:09.072Z,47.60
2019-06-18T09:51:20.423Z,49.50
2019-06-18T09:52:09.050Z,49.20
2019-06-18T09:53:09.031Z,49.70
2019-06-18T09:54:09.007Z,50.00
2019-06-18T09:55:09.000Z,49.60
2019-06-18T09:56:09.006Z,48.30
2019-06-18T09:57:08.986Z,49.80
2019-06-18T09:58:08.971Z,49.60
2019-06-18T09:59:08.940Z,50.60
2019-06-18T10:00:08.949Z,50.40
2019-06-18T10:01:08.955Z,51.00
2019-06-18T10:02:08.957Z,50.80
2019-06-18T10:03:08.915Z,51.50
2019-06-18T10:04:08.896Z,53.10
2019-06-18T10:05:08.884Z,52.20
2019-06-18T10:06:08.868Z,50.30
2019-06-18T10:07:08.892Z,53.00
2019-06-18T10:08:08.861Z,53.10
2019-06-18T10:09:08.838Z,52.80
2019-06-18T10:10:08.858Z,54.20
2019-06-18T10:11:08.812Z,53.60
2019-06-18T10:12:08.817Z,53.20
2019-06-18T10:13:08.791Z,53.70
2019-06-18T10:14:08.795Z,53.80
2019-06-18T10:15:08.782Z,55.10
2019-06-18T10:16:08.746Z,54.50
2019-06-18T10:17:08.755Z,53.50
2019-06-18T10:18:08.743Z,53.90
2019-06-18T10:19:08.730Z,52.20
2019-06-18T10:20:08.713Z,52.80
2019-06-18T10:21:08.705Z,52.70
2019-06-18T10:22:08.690Z,53.90
2019-06-18T10:23:08.685Z,53.60
2019-06-18T10:24:08.679Z,51.90
2019-06-18T10:25:08.656Z,51.60
2019-06-18T10:26:08.635Z,53.10
2019-06-18T10:27:08.633Z,53.50
2019-06-18T10:28:08.631Z,51.50
2019-06-18T10:29:26.096Z,51.00
2019-06-18T10:30:08.615Z,51.20
2019-06-18T10:31:08.601Z,47.90
2019-06-18T10:32:08.575Z,50.10
2019-06-18T10:33:08.561Z,47.90
2019-06-18T10:34:08.559Z,47.30
2019-06-18T10:35:08.555Z,46.80
2019-06-18T10:36:08.536Z,47.00
2019-06-18T10:37:08.526Z,45.30
2019-06-18T10:38:08.513Z,46.50
2019-06-18T10:39:08.511Z,44.70
2019-06-18T10:40:08.490Z,47.40
2019-06-18T10:41:08.474Z,46.50
2019-06-18T10:42:08.467Z,44.80
2019-06-18T10:43:08.451Z,45.60
2019-06-18T10:44:08.444Z,44.80
2019-06-18T10:45:08.432Z,46.70
2019-06-18T10:46:08.419Z,46.70
2019-06-18T10:47:08.395Z,46.00
2019-06-18T10:48:08.385Z,44.10
2019-06-18T10:49:17.594Z,43.00
2019-06-18T10:50:08.361Z,44.40
2019-06-18T10:51:08.345Z,45.10
2019-06-18T10:52:08.338Z,43.50
2019-06-18T10:53:08.344Z,42.80
2019-06-18T10:54:08.328Z,43.10
2019-06-18T10:55:08.310Z,43.20
2019-06-18T10:56:08.305Z,43.80
2019-06-18T10:57:08.285Z,44.20
2019-06-18T10:58:08.279Z,44.60
2019-06-18T10:59:08.249Z,42.30
2019-06-18T11:00:08.262Z,39.40
2019-06-18T11:01:08.233Z,39.00
2019-06-18T11:02:08.211Z,38.10
2019-06-18T11:03:08.220Z,38.10
2019-06-18T11:04:08.398Z,38.80
2019-06-18T11:05:08.219Z,37.20
2019-06-18T11:06:08.181Z,37.40
2019-06-18T11:07:08.189Z,36.90
2019-06-18T11:08:08.168Z,37.70
2019-06-18T11:09:08.164Z,37.00
2019-06-18T11:10:08.131Z,37.20
2019-06-18T11:11:08.140Z,35.50
2019-06-18T11:12:08.179Z,34.50
2019-06-18T11:13:08.147Z,37.30
2019-06-18T11:14:12.358Z,36.70
2019-06-18T11:15:08.090Z,36.40
2019-06-18T11:16:08.078Z,35.70
2019-06-18T11:17:08.064Z,36.80
2019-06-18T11:18:08.065Z,36.00
2019-06-18T11:19:08.042Z,37.00
2019-06-18T11:20:08.125Z,34.90
2019-06-18T11:21:08.033Z,37.30
2019-06-18T11:22:10.968Z,36.70
2019-06-18T11:23:07.994Z,35.70
2019-06-18T11:24:07.979Z,35.30
2019-06-18T11:25:07.974Z,35.10
2019-06-18T11:26:07.962Z,35.30
2019-06-18T11:27:07.934Z,35.40
2019-06-18T11:28:07.943Z,35.60
2019-06-18T11:29:07.912Z,34.80
2019-06-18T11:30:07.976Z,35.00
2019-06-18T11:31:07.920Z,35.90
2019-06-18T11:32:07.889Z,34.10
2019-06-18T11:33:07.888Z,33.70
2019-06-18T11:34:07.859Z,35.60
2019-06-18T11:35:07.859Z,33.40
2019-06-18T11:36:07.880Z,33.30
2019-06-18T11:37:07.833Z,33.80
2019-06-18T11:38:07.850Z,33.10
2019-06-18T11:39:07.796Z,32.50
2019-06-18T11:40:08.239Z,33.20
2019-06-18T11:41:07.797Z,32.60
2019-06-18T11:42:07.773Z,33.30
2019-06-18T11:43:07.791Z,32.30
2019-06-18T11:44:07.758Z,32.00
2019-06-18T11:45:07.766Z,32.80
2019-06-18T11:46:07.925Z,31.80
2019-06-18T11:47:07.714Z,31.90
2019-06-18T11:48:08.574Z,32.20
2019-06-18T11:49:07.717Z,30.90
2019-06-18T11:50:07.681Z,31.80
2019-06-18T11:51:07.700Z,29.50
2019-06-18T11:52:07.708Z,32.10
2019-06-18T11:53:08.116Z,32.40
2019-06-18T11:54:07.659Z,30.50
2019-06-18T11:55:07.634Z,31.60
2019-06-18T11:56:07.646Z,30.90
2019-06-18T11:57:07.608Z,30.00
2019-06-18T11:58:07.618Z,30.80
2019-06-18T11:59:07.605Z,29.50
2019-06-18T12:00:07.595Z,29.20
2019-06-18T12:01:07.583Z,29.50
2019-06-18T12:02:07.595Z,27.80
2019-06-18T12:03:07.568Z,28.20
2019-06-18T12:04:07.560Z,29.60
2019-06-18T12:05:07.556Z,28.30
2019-06-18T12:06:07.533Z,26.20
2019-06-18T12:07:07.531Z,28.40
2019-06-18T12:08:07.511Z,28.80
2019-06-18T12:09:07.489Z,27.80
2019-06-18T12:10:07.492Z,25.80
2019-06-18T12:11:07.493Z,28.10
2019-06-18T12:12:07.504Z,28.10
2019-06-18T12:13:07.504Z,28.10
2019-06-18T12:14:07.494Z,27.90
2019-06-18T12:15:07.480Z,28.10
2019-06-18T12:16:07.454Z,29.50
2019-06-18T12:17:07.431Z,29.80
2019-06-18T12:18:08.581Z,29.90
2019-06-18T12:19:07.413Z,29.70
2019-06-18T12:20:07.408Z,27.80
2019-06-18T12:21:07.391Z,29.10
2019-06-18T12:22:07.378Z,26.80
2019-06-18T12:23:07.384Z,25.10
2019-06-18T12:24:07.377Z,25.60
2019-06-18T12:25:07.385Z,24.10
2019-06-18T12:26:07.363Z,25.80
2019-06-18T12:27:07.355Z,24.80
2019-06-18T12:28:07.347Z,25.70
2019-06-18T12:29:07.344Z,26.60
2019-06-18T12:30:07.359Z,25.60
2019-06-18T12:31:07.315Z,25.70
2019-06-18T12:32:07.331Z,25.00
2019-06-18T12:33:07.299Z,25.40
2019-06-18T12:34:07.295Z,25.70
2019-06-18T12:35:07.269Z,25.20
2019-06-18T12:36:07.290Z,27.20
2019-06-18T12:37:07.260Z,25.90
2019-06-18T12:38:07.260Z,26.80
2019-06-18T12:39:07.252Z,25.90
2019-06-18T12:40:07.242Z,27.00
2019-06-18T12:41:07.228Z,26.60
2019-06-18T12:42:07.225Z,26.90
2019-06-18T12:43:07.223Z,26.30
2019-06-18T12:44:07.218Z,27.00
2019-06-18T12:45:07.207Z,27.30
2019-06-18T12:46:07.196Z,26.80
2019-06-18T12:47:07.177Z,25.20
2019-06-18T12:48:07.182Z,27.30
2019-06-18T12:49:07.175Z,27.70
2019-06-18T12:50:07.176Z,27.70
2019-06-18T12:51:07.141Z,27.80
2019-06-18T12:52:07.142Z,28.00